createdAt,value
2019-03-17T00:01:57.055Z,22.00
2019-03-17T00:04:30.888Z,22.00
2019-03-17T00:06:52.061Z,22.00
2019-03-17T00:09:22.521Z,22.00
2019-03-17T00:11:52.928Z,22.00
2019-03-17T00:14:23.410Z,22.00
2019-03-17T00:16:53.838Z,22.00
2019-03-17T00:19:24.219Z,22.00
2019-03-17T00:21:54.694Z,22.00
2019-03-17T00:24:25.172Z,22.00
2019-03-17T00:26:55.671Z,22.00
2019-03-17T00:29:26.056Z,22.00
2019-03-17T00:31:56.475Z,22.00
2019-03-17T00:34:26.907Z,22.00
2019-03-17T00:36:57.354Z,22.00
2019-03-17T00:39:27.831Z,22.00
2019-03-17T00:41:58.190Z,22.00
2019-03-17T00:44:28.651Z,22.00
2019-03-17T00:46:59.074Z,22.00
2019-03-17T00:49:29.553Z,22.00
2019-03-17T00:51:59.912Z,22.00
2019-03-17T00:54:30.443Z,21.90
2019-03-17T00:57:00.806Z,22.00
2019-03-17T00:59:31.233Z,22.00
2019-03-17T01:02:01.554Z,22.00
2019-03-17T01:04:31.996Z,22.00
2019-03-17T01:07:02.336Z,22.00
2019-03-17T01:09:32.850Z,22.00
2019-03-17T01:12:03.144Z,22.00
2019-03-17T01:14:33.628Z,22.00
2019-03-17T01:17:04.159Z,22.00
2019-03-17T01:19:34.604Z,22.00
2019-03-17T01:22:05.161Z,22.00
2019-03-17T01:24:35.620Z,22.00
2019-03-17T01:27:06.085Z,22.00
2019-03-17T01:29:36.486Z,22.00
2019-03-17T01:32:06.900Z,22.00
2019-03-17T01:34:37.378Z,22.00
2019-03-17T01:37:07.785Z,22.00
2019-03-17T01:39:38.214Z,22.00
2019-03-17T01:42:08.690Z,22.00
2019-03-17T01:44:39.118Z,22.00
2019-03-17T01:47:09.575Z,22.00
2019-03-17T01:49:39.921Z,22.00
2019-03-17T01:52:10.538Z,22.00
2019-03-17T01:54:40.953Z,22.00
2019-03-17T01:57:11.383Z,22.00
2019-03-17T01:59:41.809Z,22.00
2019-03-17T02:02:13.265Z,22.00
2019-03-17T02:04:43.691Z,22.00
2019-03-17T02:07:14.121Z,22.00
2019-03-17T02:09:44.545Z,22.00
2019-03-17T02:12:15.050Z,22.00
2019-03-17T02:14:45.445Z,22.00
2019-03-17T02:17:16.884Z,22.00
2019-03-17T02:19:47.437Z,22.00
2019-03-17T02:22:17.995Z,22.00
2019-03-17T02:24:48.432Z,22.00
2019-03-17T02:27:18.874Z,22.00
2019-03-17T02:29:49.418Z,22.00
2019-03-17T02:32:19.815Z,22.00
2019-03-17T02:34:50.168Z,22.00
2019-03-17T02:37:20.575Z,22.00
2019-03-17T02:39:51.024Z,22.00
2019-03-17T02:42:21.453Z,22.00
2019-03-17T02:44:51.824Z,22.00
2019-03-17T02:47:22.262Z,22.00
2019-03-17T02:49:52.682Z,22.00
2019-03-17T02:52:23.143Z,21.90
2019-03-17T02:54:53.595Z,21.90
2019-03-17T02:57:23.993Z,22.00
2019-03-17T02:59:54.672Z,22.00
2019-03-17T03:02:25.091Z,22.00
2019-03-17T03:04:55.625Z,22.00
2019-03-17T03:07:25.949Z,22.00
2019-03-17T03:09:56.409Z,22.00
2019-03-17T03:12:26.753Z,22.00
2019-03-17T03:14:57.108Z,22.00
2019-03-17T03:17:27.540Z,22.00
2019-03-17T03:19:57.918Z,22.00
2019-03-17T03:22:31.296Z,22.00
2019-03-17T03:25:01.825Z,22.00
2019-03-17T03:27:32.222Z,22.00
2019-03-17T03:30:02.627Z,22.00
2019-03-17T03:32:33.223Z,22.00
2019-03-17T03:35:03.853Z,22.00
2019-03-17T03:37:34.328Z,22.00
2019-03-17T03:40:04.777Z,22.00
2019-03-17T03:42:35.137Z,22.00
2019-03-17T03:45:06.152Z,22.00
2019-03-17T03:47:36.533Z,22.00
2019-03-17T03:50:06.977Z,22.00
2019-03-17T03:52:38.323Z,22.00
2019-03-17T03:55:08.733Z,22.00
2019-03-17T03:57:39.120Z,22.00
2019-03-17T04:00:09.764Z,22.00
2019-03-17T04:02:40.318Z,21.90
2019-03-17T04:05:10.558Z,22.00
2019-03-17T04:07:41.086Z,22.00
2019-03-17T04:10:11.458Z,22.00
2019-03-17T04:12:41.854Z,22.00
2019-03-17T04:15:12.244Z,22.00
2019-03-17T04:17:42.738Z,22.00
2019-03-17T04:20:13.045Z,22.00
2019-03-17T04:22:43.598Z,22.00
2019-03-17T04:25:16.843Z,22.00
2019-03-17T04:27:47.231Z,22.00
2019-03-17T04:30:17.556Z,22.00
2019-03-17T04:32:48.004Z,22.00
2019-03-17T04:35:18.343Z,22.00
2019-03-17T04:37:48.817Z,22.00
2019-03-17T04:40:19.251Z,22.00
2019-03-17T04:42:49.619Z,22.00
2019-03-17T04:45:19.982Z,22.00
2019-03-17T04:47:50.370Z,22.00
2019-03-17T04:50:20.648Z,22.00
2019-03-17T04:52:51.084Z,22.00
2019-03-17T04:55:21.390Z,22.00
2019-03-17T04:57:51.810Z,22.00
2019-03-17T05:00:22.238Z,22.00
2019-03-17T05:02:52.772Z,22.00
2019-03-17T05:05:23.184Z,22.00
2019-03-17T05:07:53.462Z,22.00
2019-03-17T05:10:23.879Z,22.00
2019-03-17T05:12:54.343Z,22.00
2019-03-17T05:15:24.765Z,22.00
2019-03-17T05:17:55.083Z,22.00
2019-03-17T05:20:25.477Z,22.00
2019-03-17T05:22:56.895Z,22.00
2019-03-17T05:25:27.276Z,22.00
2019-03-17T05:27:57.603Z,22.00
2019-03-17T05:30:27.970Z,22.00
2019-03-17T05:32:58.371Z,22.00
2019-03-17T05:35:28.849Z,22.00
2019-03-17T05:37:59.189Z,22.00
2019-03-17T05:40:29.563Z,22.00
2019-03-17T05:42:59.958Z,22.00
2019-03-17T05:45:30.268Z,22.00
2019-03-17T05:48:00.840Z,22.00
2019-03-17T05:50:31.189Z,22.00
2019-03-17T05:53:01.560Z,22.00
2019-03-17T05:55:31.854Z,22.00
2019-03-17T05:58:02.264Z,22.00
2019-03-17T06:00:32.639Z,22.00
2019-03-17T06:03:03.126Z,22.00
2019-03-17T06:05:33.410Z,22.00
2019-03-17T06:08:03.837Z,22.00
2019-03-17T06:10:34.222Z,22.00
2019-03-17T06:13:04.640Z,22.00
2019-03-17T06:15:35.045Z,22.00
2019-03-17T06:18:05.393Z,22.00
2019-03-17T06:20:35.717Z,22.00
2019-03-17T06:23:06.152Z,22.10
2019-03-17T06:25:36.632Z,22.00
2019-03-17T06:28:07.138Z,22.00
2019-03-17T06:30:37.611Z,22.00
2019-03-17T06:33:08.063Z,22.00
2019-03-17T06:35:38.520Z,22.00
2019-03-17T06:38:09.051Z,22.00
2019-03-17T06:40:39.507Z,22.10
2019-03-17T06:43:10.004Z,22.10
2019-03-17T06:45:40.425Z,22.10
2019-03-17T06:48:10.860Z,22.10
2019-03-17T06:50:41.190Z,22.00
2019-03-17T06:53:11.690Z,22.10
2019-03-17T06:55:42.008Z,22.10
2019-03-17T06:58:12.359Z,22.10
2019-03-17T07:00:42.667Z,22.10
2019-03-17T07:03:13.066Z,22.10
2019-03-17T07:05:43.439Z,22.10
2019-03-17T07:08:13.814Z,22.10
2019-03-17T07:10:44.244Z,22.10
2019-03-17T07:13:14.597Z,22.10
2019-03-17T07:15:45.899Z,22.10
2019-03-17T07:18:16.331Z,22.10
2019-03-17T07:20:46.787Z,22.10
2019-03-17T07:23:17.174Z,22.10
2019-03-17T07:25:47.607Z,22.10
2019-03-17T07:28:18.021Z,22.10
2019-03-17T07:30:48.422Z,22.10
2019-03-17T07:33:18.866Z,22.20
2019-03-17T07:35:49.254Z,22.10
2019-03-17T07:38:19.661Z,22.20
2019-03-17T07:40:50.098Z,22.20
2019-03-17T07:43:20.537Z,22.20
2019-03-17T07:45:50.935Z,22.20
2019-03-17T07:48:21.292Z,22.20
2019-03-17T07:50:51.616Z,22.20
2019-03-17T07:53:22.048Z,22.20
2019-03-17T07:55:52.352Z,22.20
2019-03-17T07:58:22.825Z,22.20
2019-03-17T08:00:53.253Z,22.20
2019-03-17T08:03:23.652Z,22.20
2019-03-17T08:05:54.005Z,22.20
2019-03-17T08:08:24.501Z,22.20
2019-03-17T08:10:54.889Z,22.30
2019-03-17T08:13:25.369Z,22.30
2019-03-17T08:15:55.786Z,22.30
2019-03-17T08:18:26.129Z,22.30
2019-03-17T08:20:56.575Z,22.30
2019-03-17T08:23:27.030Z,22.30
2019-03-17T08:25:57.501Z,22.40
2019-03-17T08:28:27.921Z,22.40
2019-03-17T08:30:58.366Z,22.30
2019-03-17T08:33:28.771Z,22.40
2019-03-17T08:35:59.301Z,22.40
2019-03-17T08:38:29.827Z,22.40
2019-03-17T08:41:00.334Z,22.40
2019-03-17T08:43:30.770Z,22.40
2019-03-17T08:46:01.363Z,22.40
2019-03-17T08:48:32.924Z,22.50
2019-03-17T08:51:03.355Z,22.50
2019-03-17T08:53:33.790Z,22.50
2019-03-17T08:56:04.264Z,22.50
2019-03-17T08:58:34.722Z,22.50
2019-03-17T09:01:05.113Z,22.50
2019-03-17T09:03:35.540Z,22.50
2019-03-17T09:06:05.923Z,22.60
2019-03-17T09:08:36.344Z,22.60
2019-03-17T09:11:06.681Z,22.60
2019-03-17T09:13:37.233Z,22.60
2019-03-17T09:16:07.519Z,22.60
2019-03-17T09:18:37.956Z,22.60
2019-03-17T09:21:09.402Z,22.60
2019-03-17T09:23:42.557Z,22.60
2019-03-17T09:26:11.945Z,22.60
2019-03-17T09:28:42.374Z,22.60
2019-03-17T09:31:12.829Z,22.60
2019-03-17T09:33:43.195Z,22.60
2019-03-17T09:36:13.692Z,22.60
2019-03-17T09:38:47.558Z,22.70
2019-03-17T09:41:16.220Z,22.70
2019-03-17T09:43:46.704Z,22.70
2019-03-17T09:46:17.171Z,22.70
2019-03-17T09:48:47.496Z,22.70
2019-03-17T09:51:17.914Z,22.70
2019-03-17T09:53:48.384Z,22.70
2019-03-17T09:56:18.870Z,22.70
2019-03-17T09:58:49.263Z,22.70
2019-03-17T10:01:19.667Z,22.70
2019-03-17T10:03:50.151Z,22.70
2019-03-17T10:06:20.672Z,22.70
2019-03-17T10:09:00.059Z,22.80
2019-03-17T10:11:23.013Z,22.70
2019-03-17T10:13:53.519Z,22.80
2019-03-17T10:16:24.057Z,22.80
2019-03-17T10:18:54.604Z,22.80
2019-03-17T10:21:25.835Z,22.80
2019-03-17T10:23:56.207Z,22.80
2019-03-17T10:26:26.731Z,22.80
2019-03-17T10:28:57.364Z,22.80
2019-03-17T10:31:27.792Z,22.80
2019-03-17T10:33:58.252Z,22.90
2019-03-17T10:36:28.714Z,22.90
2019-03-17T10:39:11.685Z,22.80
2019-03-17T10:41:31.356Z,22.90
2019-03-17T10:44:01.899Z,22.90
2019-03-17T10:46:32.391Z,22.90
2019-03-17T10:49:02.839Z,22.90
2019-03-17T10:51:33.291Z,22.90
2019-03-17T10:54:03.671Z,22.90
2019-03-17T10:56:34.008Z,22.90
2019-03-17T10:59:04.426Z,22.90
2019-03-17T11:01:34.889Z,22.90
2019-03-17T11:04:06.305Z,22.90
2019-03-17T11:06:36.739Z,22.90
2019-03-17T11:09:07.490Z,22.90
2019-03-17T11:11:37.969Z,22.90
2019-03-17T11:14:08.370Z,22.90
2019-03-17T11:16:38.730Z,23.00
2019-03-17T11:19:09.184Z,22.90
2019-03-17T11:21:39.551Z,22.90
2019-03-17T11:24:10.021Z,23.00
2019-03-17T11:26:40.480Z,23.00
2019-03-17T11:29:10.772Z,22.90
2019-03-17T11:31:41.148Z,23.00
2019-03-17T11:34:11.685Z,23.00
2019-03-17T11:36:42.196Z,23.00
2019-03-17T11:39:12.685Z,23.00
2019-03-17T11:41:43.319Z,23.00
2019-03-17T11:44:13.756Z,23.00
2019-03-17T11:46:44.139Z,23.00
2019-03-17T11:49:15.575Z,23.00
2019-03-17T11:51:45.949Z,23.00
2019-03-17T11:54:16.275Z,23.00
2019-03-17T11:56:46.815Z,23.00
2019-03-17T11:59:17.189Z,23.00
2019-03-17T12:01:47.657Z,23.00
2019-03-17T12:04:18.125Z,23.00
2019-03-17T12:06:48.394Z,23.00
2019-03-17T12:09:28.612Z,23.00
2019-03-17T12:11:50.903Z,23.00
2019-03-17T12:14:21.392Z,23.00
2019-03-17T12:16:51.807Z,23.00
2019-03-17T12:19:22.265Z,23.00
2019-03-17T12:21:52.703Z,23.00
2019-03-17T12:24:23.206Z,23.00
2019-03-17T12:26:53.629Z,23.00
2019-03-17T12:29:24.120Z,23.00
2019-03-17T12:31:54.510Z,23.00
2019-03-17T12:34:28.610Z,23.00
2019-03-17T12:36:57.130Z,23.00
2019-03-17T12:39:27.570Z,23.00
2019-03-17T12:41:57.861Z,23.00
2019-03-17T12:44:28.380Z,23.00
2019-03-17T12:46:58.809Z,23.00
2019-03-17T12:49:29.211Z,23.00
2019-03-17T12:51:59.581Z,23.00
2019-03-17T12:54:29.935Z,23.00
2019-03-17T12:57:00.401Z,23.00
2019-03-17T12:59:30.837Z,23.00
2019-03-17T13:02:01.272Z,23.00
2019-03-17T13:04:31.917Z,23.00
2019-03-17T13:07:02.402Z,23.00
2019-03-17T13:09:32.795Z,23.00
2019-03-17T13:12:03.242Z,23.00
2019-03-17T13:14:33.734Z,23.00
2019-03-17T13:17:04.132Z,23.00
2019-03-17T13:19:34.567Z,23.00
2019-03-17T13:22:04.981Z,23.00
2019-03-17T13:24:36.391Z,23.00
2019-03-17T13:27:06.854Z,23.00
2019-03-17T13:29:37.388Z,23.00
2019-03-17T13:32:07.783Z,23.00
2019-03-17T13:34:38.187Z,23.00
2019-03-17T13:37:08.686Z,23.00
2019-03-17T13:39:39.042Z,23.00
2019-03-17T13:42:09.398Z,23.00
2019-03-17T13:44:39.763Z,23.00
2019-03-17T13:47:10.244Z,23.00
2019-03-17T13:49:40.632Z,23.00
2019-03-17T13:52:11.097Z,23.00
2019-03-17T13:54:41.452Z,23.00
2019-03-17T13:57:11.887Z,23.00
2019-03-17T13:59:42.288Z,23.00
2019-03-17T14:02:12.811Z,23.00
2019-03-17T14:04:43.193Z,23.00
2019-03-17T14:07:14.487Z,23.00
2019-03-17T14:09:44.914Z,23.00
2019-03-17T14:12:15.252Z,23.00
2019-03-17T14:14:46.979Z,23.00
2019-03-17T14:17:17.359Z,23.00
2019-03-17T14:19:47.847Z,23.00
2019-03-17T14:22:18.322Z,23.00
2019-03-17T14:24:48.705Z,23.00
2019-03-17T14:27:19.145Z,23.00
2019-03-17T14:29:49.481Z,23.00
2019-03-17T14:32:19.954Z,23.00
2019-03-17T14:34:50.403Z,23.00
2019-03-17T14:37:20.901Z,23.00
2019-03-17T14:39:51.285Z,23.00
2019-03-17T14:42:21.687Z,23.00
2019-03-17T14:44:52.268Z,23.00
2019-03-17T14:47:22.709Z,23.00
2019-03-17T14:49:53.034Z,23.00
2019-03-17T14:52:23.427Z,23.00
2019-03-17T14:54:53.964Z,23.00
2019-03-17T14:57:24.391Z,23.00
2019-03-17T14:59:54.873Z,23.00
2019-03-17T15:02:25.281Z,23.00
2019-03-17T15:04:55.721Z,23.00
2019-03-17T15:07:26.204Z,23.00
2019-03-17T15:09:56.615Z,23.00
2019-03-17T15:12:27.047Z,23.00
2019-03-17T15:14:58.503Z,23.00
2019-03-17T15:17:28.887Z,23.00
2019-03-17T15:19:59.306Z,23.00
2019-03-17T15:22:30.641Z,23.00
2019-03-17T15:25:01.231Z,23.00
2019-03-17T15:27:31.637Z,23.00
2019-03-17T15:30:02.150Z,23.00
2019-03-17T15:32:32.617Z,23.00
2019-03-17T15:35:03.048Z,23.00
2019-03-17T15:37:33.467Z,22.90
2019-03-17T15:40:05.846Z,23.00
2019-03-17T15:42:36.229Z,22.90
2019-03-17T15:45:07.352Z,22.90
2019-03-17T15:47:37.820Z,22.90
2019-03-17T15:50:08.965Z,23.00
2019-03-17T15:52:39.321Z,22.90
2019-03-17T15:55:10.418Z,22.90
2019-03-17T15:57:40.808Z,22.90
2019-03-17T16:00:24.725Z,23.00
2019-03-17T16:02:50.701Z,22.90
2019-03-17T16:05:21.051Z,22.90
2019-03-17T16:07:51.629Z,22.90
2019-03-17T16:10:21.993Z,22.90
2019-03-17T16:12:52.469Z,22.90
2019-03-17T16:15:22.861Z,22.90
2019-03-17T16:17:53.376Z,22.90
2019-03-17T16:20:23.656Z,22.90
2019-03-17T16:22:53.990Z,22.90
2019-03-17T16:25:24.346Z,22.90
2019-03-17T16:27:54.820Z,22.90
2019-03-17T16:30:25.373Z,22.90
2019-03-17T16:32:55.986Z,22.90
2019-03-17T16:35:26.397Z,22.90
2019-03-17T16:37:56.861Z,22.90
2019-03-17T16:40:27.336Z,22.90
2019-03-17T16:42:57.853Z,22.90
2019-03-17T16:45:28.229Z,22.90
2019-03-17T16:47:58.691Z,22.90
2019-03-17T16:50:29.288Z,22.90
2019-03-17T16:52:59.712Z,22.90
2019-03-17T16:55:30.139Z,22.90
2019-03-17T16:58:00.531Z,22.90
2019-03-17T17:00:31.014Z,22.90
2019-03-17T17:03:01.383Z,22.90
2019-03-17T17:05:34.816Z,22.90
2019-03-17T17:08:03.915Z,22.90
2019-03-17T17:10:34.258Z,22.80
2019-03-17T17:13:04.558Z,22.90
2019-03-17T17:15:35.009Z,22.90
2019-03-17T17:18:05.396Z,22.90
2019-03-17T17:20:35.738Z,22.80
2019-03-17T17:23:06.194Z,22.90
2019-03-17T17:25:36.513Z,22.80
2019-03-17T17:28:06.852Z,22.90
2019-03-17T17:30:37.262Z,22.90
2019-03-17T17:33:07.690Z,22.80
2019-03-17T17:35:37.942Z,22.90
2019-03-17T17:38:08.430Z,22.80
2019-03-17T17:40:38.681Z,22.80
2019-03-17T17:43:09.132Z,22.80
2019-03-17T17:45:39.536Z,22.80
2019-03-17T17:48:10.022Z,22.80
2019-03-17T17:50:40.363Z,22.80
2019-03-17T17:53:10.890Z,22.80
2019-03-17T17:55:41.143Z,22.80
2019-03-17T17:58:11.561Z,22.90
2019-03-17T18:00:43.242Z,22.80
2019-03-17T18:03:13.677Z,22.80
2019-03-17T18:05:44.103Z,22.80
2019-03-17T18:08:14.525Z,22.80
2019-03-17T18:10:44.949Z,22.80
2019-03-17T18:13:15.387Z,22.80
2019-03-17T18:15:45.810Z,22.80
2019-03-17T18:18:16.234Z,22.80
2019-03-17T18:20:46.556Z,22.80
2019-03-17T18:23:18.429Z,22.80
2019-03-17T18:25:49.083Z,22.80
2019-03-17T18:28:19.621Z,22.80
2019-03-17T18:30:50.048Z,22.80
2019-03-17T18:33:20.406Z,22.80
2019-03-17T18:35:50.838Z,22.80
2019-03-17T18:38:21.266Z,22.80
2019-03-17T18:40:51.639Z,22.80
2019-03-17T18:43:22.107Z,22.70
2019-03-17T18:45:52.621Z,22.70
2019-03-17T18:48:22.980Z,22.70
2019-03-17T18:50:53.363Z,22.70
2019-03-17T18:53:23.846Z,22.70
2019-03-17T18:55:54.492Z,22.70
2019-03-17T18:58:25.015Z,22.70
2019-03-17T19:00:55.353Z,22.70
2019-03-17T19:03:25.932Z,22.70
2019-03-17T19:05:56.303Z,22.70
2019-03-17T19:08:27.841Z,22.70
2019-03-17T19:10:58.205Z,22.70
2019-03-17T19:13:28.575Z,22.70
2019-03-17T19:15:59.078Z,22.70
2019-03-17T19:18:29.561Z,22.70
2019-03-17T19:20:59.947Z,22.70
2019-03-17T19:23:30.312Z,22.70
2019-03-17T19:26:00.668Z,22.70
2019-03-17T19:28:31.116Z,22.70
2019-03-17T19:31:01.676Z,22.70
2019-03-17T19:33:32.189Z,22.70
2019-03-17T19:36:02.693Z,22.70
2019-03-17T19:38:33.100Z,22.70
2019-03-17T19:41:03.443Z,22.70
2019-03-17T19:43:33.876Z,22.70
2019-03-17T19:46:04.351Z,22.70
2019-03-17T19:48:34.836Z,22.70
2019-03-17T19:51:06.228Z,22.70
2019-03-17T19:53:36.686Z,22.70
2019-03-17T19:56:07.115Z,22.70
2019-03-17T19:58:39.435Z,22.70
2019-03-17T20:01:10.420Z,22.70
2019-03-17T20:03:40.803Z,22.70
2019-03-17T20:06:11.141Z,22.60
2019-03-17T20:08:41.582Z,22.60
2019-03-17T20:11:12.121Z,22.70
2019-03-17T20:13:42.782Z,22.60
2019-03-17T20:16:16.189Z,22.60
2019-03-17T20:18:46.639Z,22.60
2019-03-17T20:21:17.118Z,22.60
2019-03-17T20:23:47.588Z,22.60
2019-03-17T20:26:18.057Z,22.60
2019-03-17T20:28:48.576Z,22.60
2019-03-17T20:31:18.972Z,22.60
2019-03-17T20:33:49.400Z,22.60
2019-03-17T20:36:19.773Z,22.60
2019-03-17T20:38:50.252Z,22.60
2019-03-17T20:41:20.747Z,22.60
2019-03-17T20:43:54.793Z,22.60
2019-03-17T20:46:25.240Z,22.60
2019-03-17T20:48:55.782Z,22.60
2019-03-17T20:51:26.155Z,22.60
2019-03-17T20:53:56.632Z,22.60
2019-03-17T20:56:27.078Z,22.60
2019-03-17T20:58:57.641Z,22.60
2019-03-17T21:01:27.995Z,22.60
2019-03-17T21:03:58.337Z,22.60
2019-03-17T21:06:28.947Z,22.60
2019-03-17T21:08:59.389Z,22.60
2019-03-17T21:11:29.815Z,22.60
2019-03-17T21:14:00.276Z,22.60
2019-03-17T21:16:30.688Z,22.50
2019-03-17T21:19:01.097Z,22.50
2019-03-17T21:21:31.505Z,22.50
2019-03-17T21:24:02.001Z,22.50
2019-03-17T21:26:32.506Z,22.50
2019-03-17T21:29:02.993Z,22.50
2019-03-17T21:31:33.525Z,22.50
2019-03-17T21:34:04.130Z,22.50
2019-03-17T21:36:34.712Z,22.50
2019-03-17T21:39:07.021Z,22.50
2019-03-17T21:41:37.451Z,22.50
2019-03-17T21:44:08.944Z,22.50
2019-03-17T21:46:39.470Z,22.50
2019-03-17T21:49:09.942Z,22.50
2019-03-17T21:51:40.330Z,22.50
2019-03-17T21:54:10.657Z,22.50
2019-03-17T21:56:40.977Z,22.50
2019-03-17T21:59:11.410Z,22.50
2019-03-17T22:01:41.707Z,22.50
2019-03-17T22:04:12.151Z,22.50
2019-03-17T22:06:43.770Z,22.50
2019-03-17T22:09:17.095Z,22.50
2019-03-17T22:11:46.177Z,22.50
2019-03-17T22:14:16.674Z,22.50
2019-03-17T22:16:47.071Z,22.40
2019-03-17T22:19:18.499Z,22.50
2019-03-17T22:21:48.925Z,22.50
2019-03-17T22:24:19.283Z,22.50
2019-03-17T22:26:49.683Z,22.50
2019-03-17T22:29:20.117Z,22.50
2019-03-17T22:31:50.620Z,22.50
2019-03-17T22:34:21.068Z,22.50
2019-03-17T22:36:51.487Z,22.40
2019-03-17T22:39:21.898Z,22.40
2019-03-17T22:41:52.326Z,22.50
2019-03-17T22:44:24.591Z,22.50
2019-03-17T22:46:54.888Z,22.50
2019-03-17T22:49:25.316Z,22.50
2019-03-17T22:51:55.738Z,22.50
2019-03-17T22:54:26.166Z,22.40
2019-03-17T22:56:56.676Z,22.40
2019-03-17T22:59:27.066Z,22.50
2019-03-17T23:01:57.552Z,22.50
2019-03-17T23:04:27.940Z,22.40
2019-03-17T23:06:58.362Z,22.40
2019-03-17T23:09:28.838Z,22.40
2019-03-17T23:11:59.393Z,22.40
2019-03-17T23:14:36.666Z,22.40
2019-03-17T23:17:01.794Z,22.40
2019-03-17T23:19:32.217Z,22.40
2019-03-17T23:22:02.507Z,22.40
2019-03-17T23:24:33.740Z,22.40
2019-03-17T23:27:04.155Z,22.40
2019-03-17T23:29:34.503Z,22.40
2019-03-17T23:32:04.964Z,22.40
2019-03-17T23:34:35.331Z,22.40
2019-03-17T23:37:05.666Z,22.40
2019-03-17T23:39:36.042Z,22.40
2019-03-17T23:42:07.375Z,22.40
2019-03-17T23:44:48.433Z,22.40
2019-03-17T23:47:09.694Z,22.40
2019-03-17T23:49:40.071Z,22.40
2019-03-17T23:52:10.431Z,22.40
2019-03-17T23:54:40.843Z,22.40
2019-03-17T23:57:11.117Z,22.40
2019-03-17T23:59:41.701Z,22.40
